sensor_id;sensor_type;location;lat;lon;timestamp;pressure;altitude;pressure_sealevel;temperature;humidity
38289;BME280;24092;53.370;-6.588;2023-04-15T00:00:11;100753.53;;;5.24;100.00
38289;BME280;24092;53.370;-6.588;2023-04-15T00:02:38;100754.75;;;5.01;100.00
38289;BME280;24092;53.370;-6.588;2023-04-15T00:05:06;100758.82;;;4.91;100.00
38289;BME280;24092;53.370;-6.588;2023-04-15T00:07:34;100763.62;;;5.43;100.00
38289;BME280;24092;53.370;-6.588;2023-04-15T00:10:02;100769.29;;;5.70;100.00
38289;BME280;24092;53.370;-6.588;2023-04-15T00:12:29;100775.75;;;6.03;100.00
38289;BME280;24092;53.370;-6.588;2023-04-15T00:14:56;100778.15;;;6.07;100.00
38289;BME280;24092;53.370;-6.588;2023-04-15T00:17:23;100779.13;;;5.44;100.00
38289;BME280;24092;53.370;-6.588;2023-04-15T00:19:50;100783.73;;;4.58;100.00
38289;BME280;24092;53.370;-6.588;2023-04-15T00:22:17;100787.13;;;4.19;100.00
38289;BME280;24092;53.370;-6.588;2023-04-15T00:24:44;100788.43;;;4.56;100.00
38289;BME280;24092;53.370;-6.588;2023-04-15T00:27:12;100794.17;;;4.54;100.00
38289;BME280;24092;53.370;-6.588;2023-04-15T00:29:39;100799.77;;;4.35;100.00
38289;BME280;24092;53.370;-6.588;2023-04-15T00:32:06;100802.19;;;4.63;100.00
38289;BME280;24092;53.370;-6.588;2023-04-15T00:34:33;100801.92;;;4.95;100.00
38289;BME280;24092;53.370;-6.588;2023-04-15T00:37:00;100800.88;;;5.38;100.00
38289;BME280;24092;53.370;-6.588;2023-04-15T00:39:27;100805.72;;;4.85;100.00
38289;BME280;24092;53.370;-6.588;2023-04-15T00:41:55;100813.19;;;4.37;100.00
38289;BME280;24092;53.370;-6.588;2023-04-15T00:44:22;100815.92;;;3.37;100.00
38289;BME280;24092;53.370;-6.588;2023-04-15T00:46:50;100814.63;;;4.95;100.00
38289;BME280;24092;53.370;-6.588;2023-04-15T00:49:18;100812.61;;;6.36;100.00
38289;BME280;24092;53.370;-6.588;2023-04-15T00:51:45;100813.33;;;6.21;99.04
38289;BME280;24092;53.370;-6.588;2023-04-15T00:54:12;100811.77;;;6.58;98.61
38289;BME280;24092;53.370;-6.588;2023-04-15T00:56:39;100809.70;;;6.37;98.87
38289;BME280;24092;53.370;-6.588;2023-04-15T00:59:08;100814.20;;;5.79;98.99
38289;BME280;24092;53.370;-6.588;2023-04-15T01:01:36;100824.60;;;4.63;98.98
38289;BME280;24092;53.370;-6.588;2023-04-15T01:04:03;100824.36;;;5.81;98.42
38289;BME280;24092;53.370;-6.588;2023-04-15T01:06:31;100820.14;;;6.79;97.19
38289;BME280;24092;53.370;-6.588;2023-04-15T01:08:58;100819.18;;;6.29;97.96
38289;BME280;24092;53.370;-6.588;2023-04-15T01:11:27;100818.39;;;5.71;99.56
38289;BME280;24092;53.370;-6.588;2023-04-15T01:13:57;100824.20;;;5.24;100.00
38289;BME280;24092;53.370;-6.588;2023-04-15T01:16:25;100823.19;;;5.74;100.00
38289;BME280;24092;53.370;-6.588;2023-04-15T01:18:52;100830.05;;;5.56;100.00
38289;BME280;24092;53.370;-6.588;2023-04-15T01:21:19;100836.23;;;5.68;100.00
38289;BME280;24092;53.370;-6.588;2023-04-15T01:23:47;100843.92;;;5.64;100.00
38289;BME280;24092;53.370;-6.588;2023-04-15T01:26:15;100851.53;;;5.33;100.00
38289;BME280;24092;53.370;-6.588;2023-04-15T01:28:43;100850.88;;;4.89;100.00
38289;BME280;24092;53.370;-6.588;2023-04-15T01:31:11;100854.48;;;4.06;100.00
38289;BME280;24092;53.370;-6.588;2023-04-15T01:33:40;100858.67;;;4.27;100.00
38289;BME280;24092;53.370;-6.588;2023-04-15T01:36:09;100856.81;;;4.60;100.00
38289;BME280;24092;53.370;-6.588;2023-04-15T01:38:36;100853.54;;;5.25;100.00
38289;BME280;24092;53.370;-6.588;2023-04-15T01:41:04;100853.45;;;5.19;100.00
38289;BME280;24092;53.370;-6.588;2023-04-15T01:43:31;100855.81;;;4.33;100.00
38289;BME280;24092;53.370;-6.588;2023-04-15T01:45:58;100857.79;;;4.43;100.00
38289;BME280;24092;53.370;-6.588;2023-04-15T01:48:25;100862.50;;;4.39;100.00
38289;BME280;24092;53.370;-6.588;2023-04-15T01:50:53;100868.25;;;3.63;100.00
38289;BME280;24092;53.370;-6.588;2023-04-15T01:53:21;100871.93;;;2.93;100.00
38289;BME280;24092;53.370;-6.588;2023-04-15T01:55:48;100872.64;;;2.38;100.00
38289;BME280;24092;53.370;-6.588;2023-04-15T01:58:15;100872.04;;;2.00;100.00
38289;BME280;24092;53.370;-6.588;2023-04-15T02:00:42;100877.12;;;1.79;100.00
38289;BME280;24092;53.370;-6.588;2023-04-15T02:03:10;100879.63;;;2.22;100.00
38289;BME280;24092;53.370;-6.588;2023-04-15T02:05:37;100883.03;;;2.63;100.00
38289;BME280;24092;53.370;-6.588;2023-04-15T02:08:04;100887.72;;;2.98;100.00
38289;BME280;24092;53.370;-6.588;2023-04-15T02:10:31;100890.22;;;3.49;100.00
38289;BME280;24092;53.370;-6.588;2023-04-15T02:12:58;100893.29;;;2.85;100.00
38289;BME280;24092;53.370;-6.588;2023-04-15T02:15:25;100894.96;;;2.69;100.00
38289;BME280;24092;53.370;-6.588;2023-04-15T02:17:53;100890.10;;;2.21;100.00
38289;BME280;24092;53.370;-6.588;2023-04-15T02:20:20;100894.03;;;1.50;100.00
38289;BME280;24092;53.370;-6.588;2023-04-15T02:22:47;100894.12;;;1.95;100.00
38289;BME280;24092;53.370;-6.588;2023-04-15T02:25:14;100888.80;;;2.47;100.00
38289;BME280;24092;53.370;-6.588;2023-04-15T02:27:41;100889.04;;;2.14;100.00
38289;BME280;24092;53.370;-6.588;2023-04-15T02:30:09;100891.07;;;2.51;100.00
38289;BME280;24092;53.370;-6.588;2023-04-15T02:32:36;100894.44;;;2.75;100.00
38289;BME280;24092;53.370;-6.588;2023-04-15T02:35:04;100893.39;;;3.84;100.00
38289;BME280;24092;53.370;-6.588;2023-04-15T02:37:32;100895.09;;;3.92;100.00
38289;BME280;24092;53.370;-6.588;2023-04-15T02:39:59;100900.57;;;3.91;100.00
38289;BME280;24092;53.370;-6.588;2023-04-15T02:42:26;100908.14;;;4.00;100.00
38289;BME280;24092;53.370;-6.588;2023-04-15T02:44:53;100909.87;;;3.53;100.00
38289;BME280;24092;53.370;-6.588;2023-04-15T02:47:20;100914.67;;;3.57;100.00
38289;BME280;24092;53.370;-6.588;2023-04-15T02:49:47;100917.87;;;2.79;100.00
38289;BME280;24092;53.370;-6.588;2023-04-15T02:52:14;100924.00;;;1.77;100.00
38289;BME280;24092;53.370;-6.588;2023-04-15T02:54:42;100926.96;;;1.76;100.00
38289;BME280;24092;53.370;-6.588;2023-04-15T02:57:09;100923.05;;;1.26;100.00
38289;BME280;24092;53.370;-6.588;2023-04-15T02:59:36;100925.07;;;1.17;100.00
38289;BME280;24092;53.370;-6.588;2023-04-15T03:02:03;100930.63;;;1.39;100.00
38289;BME280;24092;53.370;-6.588;2023-04-15T03:04:31;100937.55;;;1.34;100.00
38289;BME280;24092;53.370;-6.588;2023-04-15T03:06:57;100938.61;;;1.33;100.00
38289;BME280;24092;53.370;-6.588;2023-04-15T03:09:24;100943.49;;;1.03;100.00
38289;BME280;24092;53.370;-6.588;2023-04-15T03:11:52;100939.63;;;0.78;100.00
38289;BME280;24092;53.370;-6.588;2023-04-15T03:14:19;100945.04;;;0.46;100.00
38289;BME280;24092;53.370;-6.588;2023-04-15T03:16:46;100949.29;;;0.70;100.00
38289;BME280;24092;53.370;-6.588;2023-04-15T03:19:13;100955.05;;;1.28;100.00
38289;BME280;24092;53.370;-6.588;2023-04-15T03:21:41;100958.39;;;1.13;100.00
38289;BME280;24092;53.370;-6.588;2023-04-15T03:24:08;100965.54;;;1.03;100.00
38289;BME280;24092;53.370;-6.588;2023-04-15T03:26:35;100969.61;;;1.44;100.00
38289;BME280;24092;53.370;-6.588;2023-04-15T03:29:02;100972.98;;;2.35;100.00
38289;BME280;24092;53.370;-6.588;2023-04-15T03:31:29;100976.28;;;2.11;100.00
38289;BME280;24092;53.370;-6.588;2023-04-15T03:33:56;100978.44;;;2.42;100.00
38289;BME280;24092;53.370;-6.588;2023-04-15T03:36:24;100987.75;;;1.83;100.00
38289;BME280;24092;53.370;-6.588;2023-04-15T03:38:51;100987.14;;;1.51;100.00
38289;BME280;24092;53.370;-6.588;2023-04-15T03:41:19;100984.20;;;2.05;100.00
38289;BME280;24092;53.370;-6.588;2023-04-15T03:43:46;100985.68;;;2.52;100.00
38289;BME280;24092;53.370;-6.588;2023-04-15T03:46:13;100995.10;;;2.91;100.00
38289;BME280;24092;53.370;-6.588;2023-04-15T03:48:40;100998.21;;;3.35;100.00
38289;BME280;24092;53.370;-6.588;2023-04-15T03:51:08;100999.99;;;2.71;100.00
38289;BME280;24092;53.370;-6.588;2023-04-15T03:53:35;101003.59;;;2.43;100.00
38289;BME280;24092;53.370;-6.588;2023-04-15T03:56:02;101011.23;;;2.58;100.00
38289;BME280;24092;53.370;-6.588;2023-04-15T03:58:29;101010.59;;;3.01;100.00
38289;BME280;24092;53.370;-6.588;2023-04-15T04:00:56;101010.01;;;3.05;100.00
38289;BME280;24092;53.370;-6.588;2023-04-15T04:03:23;101006.80;;;2.44;100.00
38289;BME280;24092;53.370;-6.588;2023-04-15T04:05:51;101003.84;;;2.11;100.00
38289;BME280;24092;53.370;-6.588;2023-04-15T04:08:18;101008.47;;;1.95;100.00
38289;BME280;24092;53.370;-6.588;2023-04-15T04:10:45;101009.68;;;1.50;100.00
38289;BME280;24092;53.370;-6.588;2023-04-15T04:13:12;101010.26;;;1.34;100.00
38289;BME280;24092;53.370;-6.588;2023-04-15T04:15:40;101009.97;;;1.26;100.00
38289;BME280;24092;53.370;-6.588;2023-04-15T04:18:07;101012.29;;;1.57;100.00
38289;BME280;24092;53.370;-6.588;2023-04-15T04:20:34;101015.06;;;1.15;100.00
38289;BME280;24092;53.370;-6.588;2023-04-15T04:23:01;101015.19;;;0.81;100.00
38289;BME280;24092;53.370;-6.588;2023-04-15T04:25:29;101017.34;;;0.58;100.00
38289;BME280;24092;53.370;-6.588;2023-04-15T04:27:56;101015.23;;;1.05;100.00
38289;BME280;24092;53.370;-6.588;2023-04-15T04:30:23;101020.03;;;1.17;100.00
38289;BME280;24092;53.370;-6.588;2023-04-15T04:32:51;101024.02;;;0.93;100.00
38289;BME280;24092;53.370;-6.588;2023-04-15T04:35:18;101029.00;;;0.84;100.00
38289;BME280;24092;53.370;-6.588;2023-04-15T04:37:45;101038.68;;;1.11;100.00
38289;BME280;24092;53.370;-6.588;2023-04-15T04:40:13;101037.05;;;1.18;100.00
38289;BME280;24092;53.370;-6.588;2023-04-15T04:42:40;101041.17;;;1.24;100.00
38289;BME280;24092;53.370;-6.588;2023-04-15T04:45:07;101046.43;;;1.64;100.00
38289;BME280;24092;53.370;-6.588;2023-04-15T04:47:35;101048.26;;;1.63;100.00
38289;BME280;24092;53.370;-6.588;2023-04-15T04:50:03;101054.57;;;1.78;100.00
38289;BME280;24092;53.370;-6.588;2023-04-15T04:52:31;101053.22;;;2.05;100.00
38289;BME280;24092;53.370;-6.588;2023-04-15T04:54:58;101053.73;;;1.97;100.00
38289;BME280;24092;53.370;-6.588;2023-04-15T04:57:25;101051.93;;;2.06;100.00
38289;BME280;24092;53.370;-6.588;2023-04-15T04:59:52;101055.11;;;2.29;100.00
38289;BME280;24092;53.370;-6.588;2023-04-15T05:02:20;101055.35;;;2.51;100.00
38289;BME280;24092;53.370;-6.588;2023-04-15T05:04:47;101052.54;;;2.69;100.00
38289;BME280;24092;53.370;-6.588;2023-04-15T05:07:14;101058.57;;;3.09;100.00
38289;BME280;24092;53.370;-6.588;2023-04-15T05:09:41;101068.59;;;2.80;100.00
38289;BME280;24092;53.370;-6.588;2023-04-15T05:12:09;101071.49;;;2.79;100.00
38289;BME280;24092;53.370;-6.588;2023-04-15T05:14:36;101075.05;;;2.81;100.00
38289;BME280;24092;53.370;-6.588;2023-04-15T05:17:03;101075.15;;;3.16;100.00
38289;BME280;24092;53.370;-6.588;2023-04-15T05:19:30;101077.77;;;3.12;100.00
38289;BME280;24092;53.370;-6.588;2023-04-15T05:21:57;101084.91;;;3.14;100.00
38289;BME280;24092;53.370;-6.588;2023-04-15T05:24:25;101090.73;;;2.56;100.00
38289;BME280;24092;53.370;-6.588;2023-04-15T05:26:52;101094.23;;;3.02;100.00
38289;BME280;24092;53.370;-6.588;2023-04-15T05:29:19;101097.89;;;3.44;100.00
38289;BME280;24092;53.370;-6.588;2023-04-15T05:31:46;101101.88;;;3.69;100.00
38289;BME280;24092;53.370;-6.588;2023-04-15T05:34:13;101100.21;;;3.79;100.00
38289;BME280;24092;53.370;-6.588;2023-04-15T05:36:41;101106.45;;;3.11;100.00
38289;BME280;24092;53.370;-6.588;2023-04-15T05:39:08;101115.52;;;1.99;100.00
38289;BME280;24092;53.370;-6.588;2023-04-15T05:41:35;101124.80;;;2.09;100.00
38289;BME280;24092;53.370;-6.588;2023-04-15T05:44:02;101127.39;;;1.75;100.00
38289;BME280;24092;53.370;-6.588;2023-04-15T05:46:29;101127.50;;;2.04;100.00
38289;BME280;24092;53.370;-6.588;2023-04-15T05:48:57;101124.82;;;1.53;100.00
38289;BME280;24092;53.370;-6.588;2023-04-15T05:51:24;101126.88;;;2.16;100.00
38289;BME280;24092;53.370;-6.588;2023-04-15T05:53:51;101128.07;;;3.17;100.00
38289;BME280;24092;53.370;-6.588;2023-04-15T05:56:18;101137.75;;;2.19;100.00
38289;BME280;24092;53.370;-6.588;2023-04-15T05:58:45;101144.53;;;2.04;100.00
38289;BME280;24092;53.370;-6.588;2023-04-15T06:01:13;101144.64;;;1.08;100.00
38289;BME280;24092;53.370;-6.588;2023-04-15T06:03:40;101144.87;;;1.67;100.00
38289;BME280;24092;53.370;-6.588;2023-04-15T06:06:07;101146.47;;;2.18;100.00
38289;BME280;24092;53.370;-6.588;2023-04-15T06:08:34;101152.28;;;2.77;100.00
38289;BME280;24092;53.370;-6.588;2023-04-15T06:11:01;101155.04;;;2.78;100.00
38289;BME280;24092;53.370;-6.588;2023-04-15T06:13:28;101166.57;;;2.62;100.00
38289;BME280;24092;53.370;-6.588;2023-04-15T06:15:55;101170.18;;;1.74;100.00
38289;BME280;24092;53.370;-6.588;2023-04-15T06:18:23;101169.85;;;1.75;100.00
38289;BME280;24092;53.370;-6.588;2023-04-15T06:20:50;101163.10;;;1.62;100.00
38289;BME280;24092;53.370;-6.588;2023-04-15T06:23:17;101162.68;;;2.31;100.00
38289;BME280;24092;53.370;-6.588;2023-04-15T06:25:44;101173.92;;;2.27;100.00
38289;BME280;24092;53.370;-6.588;2023-04-15T06:28:11;101179.23;;;2.13;100.00
38289;BME280;24092;53.370;-6.588;2023-04-15T06:30:39;101182.16;;;1.86;100.00
38289;BME280;24092;53.370;-6.588;2023-04-15T06:33:06;101187.13;;;2.56;100.00
38289;BME280;24092;53.370;-6.588;2023-04-15T06:35:33;101183.73;;;3.07;100.00
38289;BME280;24092;53.370;-6.588;2023-04-15T06:38:00;101183.62;;;3.58;100.00
38289;BME280;24092;53.370;-6.588;2023-04-15T06:40:27;101185.93;;;4.50;100.00
38289;BME280;24092;53.370;-6.588;2023-04-15T06:42:55;101194.87;;;4.89;100.00
38289;BME280;24092;53.370;-6.588;2023-04-15T06:45:22;101198.32;;;5.33;100.00
38289;BME280;24092;53.370;-6.588;2023-04-15T06:47:49;101192.77;;;5.93;100.00
38289;BME280;24092;53.370;-6.588;2023-04-15T06:50:16;101195.44;;;5.60;100.00
38289;BME280;24092;53.370;-6.588;2023-04-15T06:52:43;101202.37;;;6.18;100.00
38289;BME280;24092;53.370;-6.588;2023-04-15T06:55:10;101211.80;;;5.85;100.00
38289;BME280;24092;53.370;-6.588;2023-04-15T06:57:37;101221.15;;;5.38;100.00
38289;BME280;24092;53.370;-6.588;2023-04-15T07:00:06;101228.58;;;3.65;100.00
38289;BME280;24092;53.370;-6.588;2023-04-15T07:02:33;101238.29;;;3.39;100.00
38289;BME280;24092;53.370;-6.588;2023-04-15T07:05:00;101247.04;;;3.53;100.00
38289;BME280;24092;53.370;-6.588;2023-04-15T07:07:27;101254.04;;;3.04;100.00
38289;BME280;24092;53.370;-6.588;2023-04-15T07:09:54;101256.32;;;3.28;100.00
38289;BME280;24092;53.370;-6.588;2023-04-15T07:12:21;101251.93;;;4.29;100.00
38289;BME280;24092;53.370;-6.588;2023-04-15T07:14:48;101255.09;;;3.99;100.00
38289;BME280;24092;53.370;-6.588;2023-04-15T07:17:16;101258.76;;;3.43;100.00
38289;BME280;24092;53.370;-6.588;2023-04-15T07:19:43;101264.21;;;3.68;100.00
38289;BME280;24092;53.370;-6.588;2023-04-15T07:22:10;101265.49;;;4.12;100.00
38289;BME280;24092;53.370;-6.588;2023-04-15T07:24:37;101264.68;;;4.68;100.00
38289;BME280;24092;53.370;-6.588;2023-04-15T07:27:05;101267.28;;;4.88;100.00
38289;BME280;24092;53.370;-6.588;2023-04-15T07:29:32;101269.36;;;5.37;100.00
38289;BME280;24092;53.370;-6.588;2023-04-15T07:31:59;101276.43;;;4.76;100.00
38289;BME280;24092;53.370;-6.588;2023-04-15T07:34:26;101282.96;;;5.02;100.00
38289;BME280;24092;53.370;-6.588;2023-04-15T07:36:53;101289.78;;;4.47;100.00
38289;BME280;24092;53.370;-6.588;2023-04-15T07:39:21;101294.27;;;4.31;100.00
38289;BME280;24092;53.370;-6.588;2023-04-15T07:41:48;101295.18;;;4.20;100.00
38289;BME280;24092;53.370;-6.588;2023-04-15T07:44:15;101292.05;;;4.38;100.00
38289;BME280;24092;53.370;-6.588;2023-04-15T07:46:42;101295.54;;;5.21;100.00
38289;BME280;24092;53.370;-6.588;2023-04-15T07:49:09;101298.75;;;6.08;100.00
38289;BME280;24092;53.370;-6.588;2023-04-15T07:51:36;101296.93;;;5.01;100.00
38289;BME280;24092;53.370;-6.588;2023-04-15T07:54:04;101295.27;;;5.29;100.00
38289;BME280;24092;53.370;-6.588;2023-04-15T07:56:31;101294.65;;;6.14;100.00
38289;BME280;24092;53.370;-6.588;2023-04-15T07:58:58;101298.49;;;6.83;100.00
38289;BME280;24092;53.370;-6.588;2023-04-15T08:01:25;101299.02;;;7.58;100.00
38289;BME280;24092;53.370;-6.588;2023-04-15T08:03:57;101300.03;;;7.50;100.00
38289;BME280;24092;53.370;-6.588;2023-04-15T08:06:24;101299.74;;;7.93;100.00
38289;BME280;24092;53.370;-6.588;2023-04-15T08:08:51;101296.99;;;8.31;100.00
38289;BME280;24092;53.370;-6.588;2023-04-15T08:11:18;101291.60;;;8.46;100.00
38289;BME280;24092;53.370;-6.588;2023-04-15T08:13:45;101298.32;;;8.08;100.00
38289;BME280;24092;53.370;-6.588;2023-04-15T08:16:16;101303.14;;;8.06;100.00
38289;BME280;24092;53.370;-6.588;2023-04-15T08:18:44;101300.74;;;7.87;100.00
38289;BME280;24092;53.370;-6.588;2023-04-15T08:21:11;101299.25;;;7.93;100.00
38289;BME280;24092;53.370;-6.588;2023-04-15T08:23:38;101298.89;;;8.08;100.00
38289;BME280;24092;53.370;-6.588;2023-04-15T08:26:05;101299.79;;;8.30;100.00
38289;BME280;24092;53.370;-6.588;2023-04-15T08:28:32;101308.52;;;8.21;100.00
38289;BME280;24092;53.370;-6.588;2023-04-15T08:31:00;101305.63;;;7.90;100.00
38289;BME280;24092;53.370;-6.588;2023-04-15T08:33:27;101307.16;;;9.23;100.00
38289;BME280;24092;53.370;-6.588;2023-04-15T08:35:54;101313.83;;;8.90;100.00
38289;BME280;24092;53.370;-6.588;2023-04-15T08:38:21;101316.70;;;8.92;100.00
38289;BME280;24092;53.370;-6.588;2023-04-15T08:40:48;101322.01;;;8.79;100.00
38289;BME280;24092;53.370;-6.588;2023-04-15T08:43:20;101321.80;;;8.75;100.00
38289;BME280;24092;53.370;-6.588;2023-04-15T08:45:49;101325.83;;;9.01;100.00
38289;BME280;24092;53.370;-6.588;2023-04-15T08:48:16;101326.49;;;8.84;100.00
38289;BME280;24092;53.370;-6.588;2023-04-15T08:50:44;101330.76;;;9.17;100.00
38289;BME280;24092;53.370;-6.588;2023-04-15T08:53:12;101336.41;;;8.51;100.00
38289;BME280;24092;53.370;-6.588;2023-04-15T08:55:42;101334.87;;;8.47;100.00
38289;BME280;24092;53.370;-6.588;2023-04-15T08:58:09;101333.21;;;9.04;100.00
38289;BME280;24092;53.370;-6.588;2023-04-15T09:00:37;101333.09;;;9.65;100.00
38289;BME280;24092;53.370;-6.588;2023-04-15T09:03:05;101327.61;;;10.06;100.00
38289;BME280;24092;53.370;-6.588;2023-04-15T09:05:33;101325.59;;;10.09;100.00
38289;BME280;24092;53.370;-6.588;2023-04-15T09:08:01;101328.70;;;9.91;100.00
38289;BME280;24092;53.370;-6.588;2023-04-15T09:10:29;101332.06;;;10.48;100.00
38289;BME280;24092;53.370;-6.588;2023-04-15T09:12:57;101337.52;;;9.72;100.00
38289;BME280;24092;53.370;-6.588;2023-04-15T09:15:25;101333.83;;;9.87;100.00
38289;BME280;24092;53.370;-6.588;2023-04-15T09:17:53;101336.12;;;10.46;100.00
38289;BME280;24092;53.370;-6.588;2023-04-15T09:20:20;101340.12;;;9.66;100.00
38289;BME280;24092;53.370;-6.588;2023-04-15T09:22:48;101342.55;;;9.57;100.00
38289;BME280;24092;53.370;-6.588;2023-04-15T09:25:31;101344.52;;;10.77;100.00
38289;BME280;24092;53.370;-6.588;2023-04-15T09:28:00;101346.52;;;11.30;100.00
38289;BME280;24092;53.370;-6.588;2023-04-15T09:30:27;101344.60;;;11.17;100.00
38289;BME280;24092;53.370;-6.588;2023-04-15T09:32:56;101343.97;;;9.85;100.00
38289;BME280;24092;53.370;-6.588;2023-04-15T09:35:25;101349.24;;;9.88;100.00
38289;BME280;24092;53.370;-6.588;2023-04-15T09:38:00;101349.29;;;9.63;100.00
38289;BME280;24092;53.370;-6.588;2023-04-15T09:40:32;101350.34;;;8.90;100.00
38289;BME280;24092;53.370;-6.588;2023-04-15T09:43:00;101351.85;;;7.35;100.00
38289;BME280;24092;53.370;-6.588;2023-04-15T09:45:28;101346.41;;;10.13;100.00
38289;BME280;24092;53.370;-6.588;2023-04-15T09:47:56;101346.60;;;10.48;100.00
38289;BME280;24092;53.370;-6.588;2023-04-15T09:50:27;101347.82;;;9.17;100.00
38289;BME280;24092;53.370;-6.588;2023-04-15T09:52:54;101351.95;;;9.26;100.00
38289;BME280;24092;53.370;-6.588;2023-04-15T09:55:22;101349.68;;;10.88;99.82
38289;BME280;24092;53.370;-6.588;2023-04-15T09:57:49;101348.92;;;8.73;100.00
38289;BME280;24092;53.370;-6.588;2023-04-15T10:00:16;101343.78;;;10.72;98.13
38289;BME280;24092;53.370;-6.588;2023-04-15T10:02:44;101349.06;;;9.61;99.33
38289;BME280;24092;53.370;-6.588;2023-04-15T10:05:14;101348.80;;;11.35;96.32
38289;BME280;24092;53.370;-6.588;2023-04-15T10:07:42;101349.20;;;11.30;95.12
38289;BME280;24092;53.370;-6.588;2023-04-15T10:10:10;101355.25;;;10.52;94.66
38289;BME280;24092;53.370;-6.588;2023-04-15T10:12:40;101353.93;;;9.67;94.38
38289;BME280;24092;53.370;-6.588;2023-04-15T10:15:13;101350.16;;;9.38;95.90
38289;BME280;24092;53.370;-6.588;2023-04-15T10:17:43;101356.87;;;8.83;100.00
38289;BME280;24092;53.370;-6.588;2023-04-15T10:20:11;101355.86;;;8.92;100.00
38289;BME280;24092;53.370;-6.588;2023-04-15T10:22:39;101357.42;;;8.33;99.96
38289;BME280;24092;53.370;-6.588;2023-04-15T10:25:09;101355.44;;;8.85;100.00
38289;BME280;24092;53.370;-6.588;2023-04-15T10:27:38;101364.10;;;9.08;100.00
38289;BME280;24092;53.370;-6.588;2023-04-15T10:30:07;101362.51;;;9.11;100.00
38289;BME280;24092;53.370;-6.588;2023-04-15T10:32:35;101359.92;;;8.75;97.33
38289;BME280;24092;53.370;-6.588;2023-04-15T10:35:05;101358.38;;;9.16;95.72
38289;BME280;24092;53.370;-6.588;2023-04-15T10:37:34;101350.84;;;9.04;93.29
38289;BME280;24092;53.370;-6.588;2023-04-15T10:40:23;101355.29;;;8.08;99.41
38289;BME280;24092;53.370;-6.588;2023-04-15T10:42:50;101354.09;;;8.91;98.82
38289;BME280;24092;53.370;-6.588;2023-04-15T10:45:18;101350.48;;;10.98;93.71
38289;BME280;24092;53.370;-6.588;2023-04-15T10:47:45;101347.69;;;11.34;90.09
38289;BME280;24092;53.370;-6.588;2023-04-15T10:50:12;101347.89;;;11.18;89.87
38289;BME280;24092;53.370;-6.588;2023-04-15T10:52:40;101350.04;;;10.54;92.59
38289;BME280;24092;53.370;-6.588;2023-04-15T10:55:13;101353.79;;;9.91;94.37
38289;BME280;24092;53.370;-6.588;2023-04-15T10:57:42;101353.14;;;10.41;93.10
38289;BME280;24092;53.370;-6.588;2023-04-15T11:00:13;101352.28;;;10.04;92.22
38289;BME280;24092;53.370;-6.588;2023-04-15T11:02:43;101344.57;;;10.78;90.33
38289;BME280;24092;53.370;-6.588;2023-04-15T11:05:12;101345.77;;;10.16;95.58
38289;BME280;24092;53.370;-6.588;2023-04-15T11:07:46;101344.77;;;10.23;97.04
38289;BME280;24092;53.370;-6.588;2023-04-15T11:11:21;101348.09;;;12.15;96.02
38289;BME280;24092;53.370;-6.588;2023-04-15T11:13:50;101344.43;;;10.14;96.62
38289;BME280;24092;53.370;-6.588;2023-04-15T11:16:17;101339.38;;;11.27;90.84
38289;BME280;24092;53.370;-6.588;2023-04-15T11:18:53;101339.79;;;9.12;96.71
38289;BME280;24092;53.370;-6.588;2023-04-15T11:21:24;101341.59;;;10.84;94.11
38289;BME280;24092;53.370;-6.588;2023-04-15T11:23:52;101340.69;;;10.98;92.30
38289;BME280;24092;53.370;-6.588;2023-04-15T11:26:18;101346.17;;;10.56;92.71
38289;BME280;24092;53.370;-6.588;2023-04-15T11:28:51;101349.75;;;10.05;94.68
38289;BME280;24092;53.370;-6.588;2023-04-15T11:31:18;101348.91;;;9.32;97.11
38289;BME280;24092;53.370;-6.588;2023-04-15T11:33:47;101348.61;;;10.00;95.73
38289;BME280;24092;53.370;-6.588;2023-04-15T11:36:19;101349.12;;;10.88;95.62
38289;BME280;24092;53.370;-6.588;2023-04-15T11:38:46;101346.39;;;11.28;92.46
38289;BME280;24092;53.370;-6.588;2023-04-15T11:41:14;101347.81;;;11.74;92.10
38289;BME280;24092;53.370;-6.588;2023-04-15T11:43:41;101349.41;;;12.17;90.85
38289;BME280;24092;53.370;-6.588;2023-04-15T11:46:08;101352.37;;;12.43;89.08
38289;BME280;24092;53.370;-6.588;2023-04-15T11:48:35;101354.60;;;12.36;89.99
38289;BME280;24092;53.370;-6.588;2023-04-15T11:51:03;101347.66;;;12.10;90.23
38289;BME280;24092;53.370;-6.588;2023-04-15T11:53:40;101345.22;;;11.81;92.48
38289;BME280;24092;53.370;-6.588;2023-04-15T11:56:08;101346.09;;;12.28;91.78
38289;BME280;24092;53.370;-6.588;2023-04-15T11:58:37;101341.23;;;12.65;90.23
38289;BME280;24092;53.370;-6.588;2023-04-15T12:01:05;101340.09;;;12.93;89.63
38289;BME280;24092;53.370;-6.588;2023-04-15T12:03:36;101335.75;;;10.99;93.13
38289;BME280;24092;53.370;-6.588;2023-04-15T12:06:08;101336.39;;;11.45;93.00
38289;BME280;24092;53.370;-6.588;2023-04-15T12:08:55;101339.01;;;12.39;92.45
38289;BME280;24092;53.370;-6.588;2023-04-15T12:11:28;101339.37;;;11.81;91.32
38289;BME280;24092;53.370;-6.588;2023-04-15T12:13:57;101335.16;;;11.65;91.83
38289;BME280;24092;53.370;-6.588;2023-04-15T12:16:27;101331.46;;;11.75;91.79
38289;BME280;24092;53.370;-6.588;2023-04-15T12:18:57;101331.82;;;11.87;92.05
38289;BME280;24092;53.370;-6.588;2023-04-15T12:21:25;101332.50;;;12.07;93.05
38289;BME280;24092;53.370;-6.588;2023-04-15T12:23:54;101332.69;;;11.87;92.99
38289;BME280;24092;53.370;-6.588;2023-04-15T12:26:26;101334.14;;;11.25;94.46
38289;BME280;24092;53.370;-6.588;2023-04-15T12:28:53;101333.68;;;10.87;98.51
38289;BME280;24092;53.370;-6.588;2023-04-15T12:31:21;101336.64;;;10.47;96.67
38289;BME280;24092;53.370;-6.588;2023-04-15T12:33:48;101337.76;;;10.99;97.27
38289;BME280;24092;53.370;-6.588;2023-04-15T12:36:16;101341.34;;;10.57;96.24
38289;BME280;24092;53.370;-6.588;2023-04-15T12:38:42;101339.32;;;11.08;95.03
38289;BME280;24092;53.370;-6.588;2023-04-15T12:41:09;101338.76;;;11.23;95.16
38289;BME280;24092;53.370;-6.588;2023-04-15T12:43:36;101337.32;;;11.39;94.76